Koun Maru — JK5556 — position and weather

sailwx.info

Track history (hours):
 
Tides and Currents Weather Stations Pressure Air Temp Water Temp Dewpoint Dewpoint Depression Visibility Wind Speed Wind Dir Waves Ship Positions

Koun Maru

Last reported at 2016-Aug-25 07:33 UTC. Time now 2016-Aug-25 22:00 UTC.
Position N 34°36' E 135°12'.

Length 40 m.

Type: Tanker. MMSI: 431401871.

Date/timePositionNaut miles runAvg speedWind from/ knotsBaromVisibWave heightAir tempDewpointWater temp
2016-Aug-25 07:33N 34°36' E 135°12'10 3.0
2016-Aug-25 04:09N 34°33' E 135°24'7 9.2
2016-Aug-25 03:26N 34°29' E 135°17'13 0.4
2016-Aug-23 20:33N 34°37' E 135°05'1010.1
2016-Aug-23 19:31N 34°38' E 135°18'6 0.1
2016-Aug-21 23:30N 34°39' E 135°25'3 3.2
2016-Aug-21 22:31N 34°38' E 135°21'8 8.2
2016-Aug-21 21:31N 34°39' E 135°12'0 0.0
2016-Aug-21 20:28N 34°39' E 135°12'0 0.0
2016-Aug-21 19:28N 34°39' E 135°12'0 0.1
2016-Aug-21 18:29N 34°39' E 135°12'0 0.0
2016-Aug-21 17:29N 34°39' E 135°12'0 0.0
2016-Aug-21 16:23N 34°39' E 135°12'0 0.0
2016-Aug-21 15:33N 34°39' E 135°12'0 0.0
2016-Aug-21 14:27N 34°39' E 135°12'0 0.0
2016-Aug-21 13:33N 34°39' E 135°12'0 0.0
2016-Aug-21 12:33N 34°39' E 135°12'0 0.0
2016-Aug-21 11:33N 34°39' E 135°12'5 4.9
2016-Aug-21 10:33N 34°37' E 135°06'  
2016-Aug-18 01:33N 34°37' E 135°08'13 4.1
2016-Aug-17 22:19N 34°34' E 135°24'4 0.3
2016-Aug-17 09:23N 34°37' E 135°25'8 9.5
2016-Aug-17 08:33N 34°31' E 135°19'  
Track history (hours):
 
Tides and Currents Weather Stations Pressure Air Temp Water Temp Dewpoint Dewpoint Depression Visibility Wind Speed Wind Dir Waves Ship Positions

Koun Maru

Last reported at 2016-Aug-25 07:33 UTC. Time now 2016-Aug-25 22:00 UTC.
Position N 34°36' E 135°12'.

Length 40 m.

Type: Tanker. MMSI: 431401871.

Date/timePositionNaut miles runAvg speedWind from/ knotsBaromVisibWave heightAir tempDewpointWater temp
2016-Aug-25 07:33N 34°36' E 135°12'10 3.0
2016-Aug-25 04:09N 34°33' E 135°24'7 9.2
2016-Aug-25 03:26N 34°29' E 135°17'13 0.4
2016-Aug-23 20:33N 34°37' E 135°05'1010.1
2016-Aug-23 19:31N 34°38' E 135°18'6 0.1
2016-Aug-21 23:30N 34°39' E 135°25'3 3.2
2016-Aug-21 22:31N 34°38' E 135°21'8 8.2
2016-Aug-21 21:31N 34°39' E 135°12'0 0.0
2016-Aug-21 20:28N 34°39' E 135°12'0 0.0
2016-Aug-21 19:28N 34°39' E 135°12'0 0.1
2016-Aug-21 18:29N 34°39' E 135°12'0 0.0
2016-Aug-21 17:29N 34°39' E 135°12'0 0.0
2016-Aug-21 16:23N 34°39' E 135°12'0 0.0
2016-Aug-21 15:33N 34°39' E 135°12'0 0.0
2016-Aug-21 14:27N 34°39' E 135°12'0 0.0
2016-Aug-21 13:33N 34°39' E 135°12'0 0.0
2016-Aug-21 12:33N 34°39' E 135°12'0 0.0
2016-Aug-21 11:33N 34°39' E 135°12'5 4.9
2016-Aug-21 10:33N 34°37' E 135°06'  
2016-Aug-18 01:33N 34°37' E 135°08'13 4.1
2016-Aug-17 22:19N 34°34' E 135°24'4 0.3
2016-Aug-17 09:23N 34°37' E 135°25'8 9.5
2016-Aug-17 08:33N 34°31' E 135°19'  

Dump ship's entire track history